Ince Atlantic — TCYW — position and weather

sailwx.info

Track history (hours):
 
Tides and Currents Weather Stations Pressure Air Temp Water Temp Dewpoint Dewpoint Depression Visibility Wind Speed Wind Dir Waves Ship Positions

Ince Atlantic

Last reported at 2017-Oct-19 20:14 UTC. Time now 2017-Oct-20 19:33 UTC.
Position N 46°39' E 031°01'.

Length 186 m; draft 6.5 m.

Type: Cargo ship. MMSI: 271000620.

Date/timePositionNaut miles runAvg speedWind from/ knotsBaromVisibWave heightAir tempDewpointWater temp
2017-Oct-19 20:14N 46°39' E 031°01'0 0.0
2017-Oct-19 19:59N 46°39' E 031°01'0 0.0
2017-Oct-19 16:20N 46°39' E 031°01'0 0.0
2017-Oct-19 15:56N 46°39' E 031°01'0 0.0
2017-Oct-19 15:26N 46°39' E 031°01'0 0.0
2017-Oct-19 13:32N 46°39' E 031°01'0 0.1
2017-Oct-19 13:20N 46°39' E 031°01'0 0.0
2017-Oct-19 02:14N 46°39' E 031°01'0 0.0
2017-Oct-19 01:11N 46°39' E 031°01'  
2017-Oct-16 09:09N 46°36' E 031°01'4 0.2
2017-Oct-15 14:57N 46°32' E 030°58'1111.0
2017-Oct-15 13:59N 46°21' E 030°57'333 7.1
2017-Oct-13 14:53N 40°59' E 028°60'3 7.4
2017-Oct-13 14:28N 40°56' E 028°58'2 3.8
2017-Oct-13 14:00N 40°57' E 028°56'  
2017-Oct-10 23:54N 40°25' E 029°05'0 0.0
2017-Oct-10 23:24N 40°25' E 029°05'0 0.0
2017-Oct-10 23:00N 40°25' E 029°05'0 0.0
2017-Oct-10 19:06N 40°25' E 029°05'0 0.1
2017-Oct-10 18:48N 40°25' E 029°05'0 0.0
2017-Oct-10 18:30N 40°25' E 029°05'0 0.0
2017-Oct-10 18:00N 40°25' E 029°05'0 0.0
2017-Oct-10 17:30N 40°25' E 029°05'0 0.0
2017-Oct-10 16:54N 40°25' E 029°05'0 0.0
2017-Oct-10 15:06N 40°25' E 029°05'0 0.0
2017-Oct-10 15:00N 40°25' E 029°05'0 0.0
2017-Oct-10 14:00N 40°25' E 029°05'0 0.0
2017-Oct-10 13:24N 40°25' E 029°05'0 0.0
2017-Oct-10 08:18N 40°25' E 029°05'0 0.0
2017-Oct-10 04:54N 40°25' E 029°05'0 0.0
2017-Oct-10 03:54N 40°25' E 029°05'0 0.1
2017-Oct-10 03:30N 40°25' E 029°05'0 0.0
2017-Oct-10 01:24N 40°25' E 029°05'0 0.0
2017-Oct-10 00:54N 40°25' E 029°05'0 0.0
2017-Oct-10 00:30N 40°25' E 029°05'0 0.0
2017-Oct-10 00:00N 40°25' E 029°05'0 0.0
2017-Oct-09 23:24N 40°25' E 029°05'0 0.0
2017-Oct-09 23:00N 40°25' E 029°05'0 0.0
2017-Oct-09 22:24N 40°25' E 029°05'0 0.0
2017-Oct-09 21:48N 40°25' E 029°05'  
Track history (hours):
 
Tides and Currents Weather Stations Pressure Air Temp Water Temp Dewpoint Dewpoint Depression Visibility Wind Speed Wind Dir Waves Ship Positions

Ince Atlantic

Last reported at 2017-Oct-19 20:14 UTC. Time now 2017-Oct-20 19:33 UTC.
Position N 46°39' E 031°01'.

Length 186 m; draft 6.5 m.

Type: Cargo ship. MMSI: 271000620.

Date/timePositionNaut miles runAvg speedWind from/ knotsBaromVisibWave heightAir tempDewpointWater temp
2017-Oct-19 20:14N 46°39' E 031°01'0 0.0
2017-Oct-19 19:59N 46°39' E 031°01'0 0.0
2017-Oct-19 16:20N 46°39' E 031°01'0 0.0
2017-Oct-19 15:56N 46°39' E 031°01'0 0.0
2017-Oct-19 15:26N 46°39' E 031°01'0 0.0
2017-Oct-19 13:32N 46°39' E 031°01'0 0.1
2017-Oct-19 13:20N 46°39' E 031°01'0 0.0
2017-Oct-19 02:14N 46°39' E 031°01'0 0.0
2017-Oct-19 01:11N 46°39' E 031°01'  
2017-Oct-16 09:09N 46°36' E 031°01'4 0.2
2017-Oct-15 14:57N 46°32' E 030°58'1111.0
2017-Oct-15 13:59N 46°21' E 030°57'333 7.1
2017-Oct-13 14:53N 40°59' E 028°60'3 7.4
2017-Oct-13 14:28N 40°56' E 028°58'2 3.8
2017-Oct-13 14:00N 40°57' E 028°56'  
2017-Oct-10 23:54N 40°25' E 029°05'0 0.0
2017-Oct-10 23:24N 40°25' E 029°05'0 0.0
2017-Oct-10 23:00N 40°25' E 029°05'0 0.0
2017-Oct-10 19:06N 40°25' E 029°05'0 0.1
2017-Oct-10 18:48N 40°25' E 029°05'0 0.0
2017-Oct-10 18:30N 40°25' E 029°05'0 0.0
2017-Oct-10 18:00N 40°25' E 029°05'0 0.0
2017-Oct-10 17:30N 40°25' E 029°05'0 0.0
2017-Oct-10 16:54N 40°25' E 029°05'0 0.0
2017-Oct-10 15:06N 40°25' E 029°05'0 0.0
2017-Oct-10 15:00N 40°25' E 029°05'0 0.0
2017-Oct-10 14:00N 40°25' E 029°05'0 0.0
2017-Oct-10 13:24N 40°25' E 029°05'0 0.0
2017-Oct-10 08:18N 40°25' E 029°05'0 0.0
2017-Oct-10 04:54N 40°25' E 029°05'0 0.0
2017-Oct-10 03:54N 40°25' E 029°05'0 0.1
2017-Oct-10 03:30N 40°25' E 029°05'0 0.0
2017-Oct-10 01:24N 40°25' E 029°05'0 0.0
2017-Oct-10 00:54N 40°25' E 029°05'0 0.0
2017-Oct-10 00:30N 40°25' E 029°05'0 0.0
2017-Oct-10 00:00N 40°25' E 029°05'0 0.0
2017-Oct-09 23:24N 40°25' E 029°05'0 0.0
2017-Oct-09 23:00N 40°25' E 029°05'0 0.0
2017-Oct-09 22:24N 40°25' E 029°05'0 0.0
2017-Oct-09 21:48N 40°25' E 029°05'  

Dump ship's entire track history